createdAt,value
2019-02-07T00:01:30.458Z,17.07
2019-02-07T00:03:58.535Z,16.87
2019-02-07T00:06:26.677Z,15.20
2019-02-07T00:08:54.738Z,17.07
2019-02-07T00:11:22.793Z,16.37
2019-02-07T00:13:50.847Z,16.33
2019-02-07T00:16:18.902Z,15.10
2019-02-07T00:18:46.958Z,16.37
2019-02-07T00:21:15.014Z,16.80
2019-02-07T00:23:43.084Z,16.80
2019-02-07T00:26:11.402Z,16.03
2019-02-07T00:28:39.464Z,17.37
2019-02-07T00:31:07.526Z,15.83
2019-02-07T00:33:35.850Z,17.53
2019-02-07T00:36:04.203Z,17.63
2019-02-07T00:38:32.266Z,18.17
2019-02-07T00:41:00.334Z,16.97
2019-02-07T00:43:28.390Z,17.20
2019-02-07T00:45:56.450Z,16.10
2019-02-07T00:48:24.518Z,15.63
2019-02-07T00:50:52.566Z,16.50
2019-02-07T00:53:20.942Z,16.63
2019-02-07T00:55:48.987Z,16.83
2019-02-07T00:58:17.043Z,18.77
2019-02-07T01:00:45.114Z,17.12
2019-02-07T01:03:13.246Z,18.27
2019-02-07T01:05:41.686Z,17.15
2019-02-07T01:08:09.946Z,17.98
2019-02-07T01:10:38.162Z,18.00
2019-02-07T01:13:06.280Z,16.45
2019-02-07T01:15:34.406Z,18.33
2019-02-07T01:18:02.461Z,16.57
2019-02-07T01:20:30.594Z,16.42
2019-02-07T01:22:58.949Z,18.30
2019-02-07T01:25:27.002Z,17.27
2019-02-07T01:27:55.136Z,17.33
2019-02-07T01:30:24.361Z,16.70
2019-02-07T01:32:52.679Z,17.70
2019-02-07T01:35:20.768Z,15.77
2019-02-07T01:37:49.833Z,18.20
2019-02-07T01:40:18.763Z,16.73
2019-02-07T01:42:46.812Z,17.40
2019-02-07T01:45:16.335Z,16.90
2019-02-07T01:47:44.506Z,17.67
2019-02-07T01:50:13.826Z,18.43
2019-02-07T01:52:41.986Z,15.58
2019-02-07T01:55:10.698Z,17.10
2019-02-07T01:57:38.861Z,18.17
2019-02-07T02:00:10.276Z,17.47
2019-02-07T02:02:38.338Z,17.70
2019-02-07T02:05:07.560Z,16.97
2019-02-07T02:07:35.612Z,17.50
2019-02-07T02:10:05.595Z,17.77
2019-02-07T02:12:33.678Z,16.13
2019-02-07T02:15:01.754Z,16.83
2019-02-07T02:17:29.813Z,17.07
2019-02-07T02:19:57.874Z,18.10
2019-02-07T02:22:25.935Z,18.17
2019-02-07T02:24:53.990Z,17.75
2019-02-07T02:27:22.078Z,18.10
2019-02-07T02:29:50.134Z,17.63
2019-02-07T02:32:18.184Z,17.17
2019-02-07T02:34:46.244Z,17.97
2019-02-07T02:37:14.298Z,19.30
2019-02-07T02:39:43.228Z,18.23
2019-02-07T02:42:11.335Z,18.92
2019-02-07T02:44:39.479Z,17.30
2019-02-07T02:47:08.107Z,18.73
2019-02-07T02:49:36.160Z,17.87
2019-02-07T02:52:06.623Z,17.93
2019-02-07T02:54:36.589Z,17.97
2019-02-07T02:57:04.666Z,17.13
2019-02-07T02:59:33.170Z,17.33
2019-02-07T03:02:09.749Z,19.30
2019-02-07T03:04:39.458Z,19.57
2019-02-07T03:07:11.823Z,19.10
2019-02-07T03:09:47.330Z,18.63
2019-02-07T03:12:19.710Z,17.00
2019-02-07T03:15:07.559Z,18.07
2019-02-07T03:17:40.040Z,17.17
2019-02-07T03:20:15.770Z,17.40
2019-02-07T03:22:51.227Z,16.30
2019-02-07T03:25:39.475Z,17.93
2019-02-07T03:28:12.202Z,18.43
2019-02-07T03:30:50.864Z,18.03
2019-02-07T03:33:23.215Z,17.03
2019-02-07T03:35:55.852Z,17.13
2019-02-07T03:38:26.526Z,17.70
2019-02-07T03:41:02.346Z,17.90
2019-02-07T03:43:35.266Z,17.40
2019-02-07T03:46:05.223Z,17.40
2019-02-07T03:48:41.862Z,17.70
2019-02-07T03:51:17.910Z,17.03
2019-02-07T03:54:03.941Z,17.73
2019-02-07T03:56:36.430Z,17.23
2019-02-07T03:59:22.306Z,16.97
2019-02-07T04:01:58.063Z,19.17
2019-02-07T04:04:30.699Z,18.57
2019-02-07T04:07:00.408Z,18.43
2019-02-07T04:09:30.568Z,18.97
2019-02-07T04:12:16.467Z,18.20
2019-02-07T04:14:46.181Z,18.73
2019-02-07T04:17:21.707Z,19.37
2019-02-07T04:20:07.866Z,19.07
2019-02-07T04:22:43.551Z,19.37
2019-02-07T04:25:25.515Z,18.67
2019-02-07T04:27:55.262Z,19.43
2019-02-07T04:30:24.950Z,18.90
2019-02-07T04:33:11.145Z,18.60
2019-02-07T04:35:40.839Z,17.07
2019-02-07T04:38:19.498Z,17.82
2019-02-07T04:40:57.672Z,18.27
2019-02-07T04:43:44.110Z,18.30
2019-02-07T04:46:14.182Z,19.27
2019-02-07T04:48:56.007Z,22.80
2019-02-07T04:51:38.425Z,18.53
2019-02-07T04:54:26.156Z,18.93
2019-02-07T04:56:58.607Z,18.20
2019-02-07T04:59:28.294Z,18.90
2019-02-07T05:02:06.880Z,18.40
2019-02-07T05:04:42.926Z,19.77
2019-02-07T05:07:12.626Z,17.57
2019-02-07T05:09:44.970Z,18.30
2019-02-07T05:12:15.648Z,20.50
2019-02-07T05:14:51.160Z,20.30
2019-02-07T05:17:26.418Z,19.70
2019-02-07T05:20:07.902Z,19.40
2019-02-07T05:22:43.394Z,19.53
2019-02-07T05:25:28.852Z,19.53
2019-02-07T05:28:04.518Z,20.13
2019-02-07T05:30:36.733Z,19.33
2019-02-07T05:33:15.158Z,19.23
2019-02-07T05:35:44.908Z,19.37
2019-02-07T05:41:24.580Z,18.77
2019-02-07T05:44:03.218Z,19.17
2019-02-07T05:49:20.540Z,20.33
2019-02-07T05:51:59.416Z,18.77
2019-02-07T05:54:29.116Z,19.47
2019-02-07T05:57:01.638Z,19.10
2019-02-07T05:59:31.330Z,18.53
2019-02-07T06:02:01.429Z,19.87
2019-02-07T06:04:31.162Z,18.97
2019-02-07T06:07:06.522Z,19.20
2019-02-07T06:09:36.331Z,19.70
2019-02-07T06:12:06.027Z,18.30
2019-02-07T06:14:35.720Z,20.00
2019-02-07T06:17:14.630Z,19.42
2019-02-07T06:19:44.351Z,18.17
2019-02-07T06:22:14.039Z,19.97
2019-02-07T06:25:01.883Z,19.37
2019-02-07T06:27:37.105Z,19.77
2019-02-07T06:30:17.054Z,20.27
2019-02-07T06:32:49.581Z,19.10
2019-02-07T06:35:19.628Z,19.62
2019-02-07T06:38:04.791Z,20.15
2019-02-07T06:40:50.654Z,18.80
2019-02-07T06:43:23.870Z,19.23
2019-02-07T06:45:53.579Z,20.30
2019-02-07T06:48:39.854Z,20.47
2019-02-07T06:51:26.641Z,19.32
2019-02-07T06:53:59.284Z,20.30
2019-02-07T06:56:31.516Z,20.47
2019-02-07T06:59:03.911Z,20.30
2019-02-07T07:01:33.614Z,19.87
2019-02-07T07:04:21.459Z,20.20
2019-02-07T07:07:02.855Z,20.77
2019-02-07T07:09:44.739Z,18.70
2019-02-07T07:12:23.491Z,21.83
2019-02-07T07:15:05.334Z,21.00
2019-02-07T07:17:35.034Z,20.05
2019-02-07T07:20:18.225Z,21.57
2019-02-07T07:23:04.147Z,19.70
2019-02-07T07:25:37.538Z,21.77
2019-02-07T07:28:16.482Z,21.05
2019-02-07T07:30:48.950Z,21.87
2019-02-07T07:33:36.880Z,22.53
2019-02-07T07:36:18.804Z,20.25
2019-02-07T07:39:04.806Z,22.13
2019-02-07T07:41:40.182Z,21.40
2019-02-07T07:44:25.086Z,22.57
2019-02-07T07:47:00.261Z,22.33
2019-02-07T07:49:32.763Z,23.03
2019-02-07T07:52:04.937Z,21.90
2019-02-07T07:54:52.815Z,21.27
2019-02-07T07:57:28.602Z,20.73
2019-02-07T08:00:18.995Z,21.90
2019-02-07T08:02:53.730Z,21.40
2019-02-07T08:05:29.283Z,21.43
2019-02-07T08:07:58.963Z,21.53
2019-02-07T08:10:28.940Z,21.87
2019-02-07T08:13:07.749Z,23.87
2019-02-07T08:15:40.178Z,21.00
2019-02-07T08:18:18.706Z,22.85
2019-02-07T08:20:48.675Z,21.77
2019-02-07T08:23:18.403Z,20.93
2019-02-07T08:25:48.095Z,21.53
2019-02-07T08:28:26.250Z,22.77
2019-02-07T08:31:13.262Z,22.67
2019-02-07T08:33:51.638Z,21.83
2019-02-07T08:36:36.694Z,21.87
2019-02-07T08:39:13.466Z,21.50
2019-02-07T08:41:52.350Z,23.20
2019-02-07T08:44:28.170Z,22.93
2019-02-07T08:47:07.166Z,23.03
2019-02-07T08:49:46.162Z,23.23
2019-02-07T08:52:19.944Z,23.93
2019-02-07T08:54:49.809Z,23.20
2019-02-07T08:57:22.274Z,21.70
2019-02-07T09:00:08.516Z,23.80
2019-02-07T09:02:56.094Z,23.37
2019-02-07T09:05:34.599Z,23.67
2019-02-07T09:08:10.538Z,23.57
2019-02-07T09:10:43.158Z,24.33
2019-02-07T09:13:28.926Z,23.93
2019-02-07T09:15:59.291Z,23.90
2019-02-07T09:18:31.752Z,23.18
2019-02-07T09:21:01.474Z,23.53
2019-02-07T09:23:46.246Z,23.87
2019-02-07T09:26:18.674Z,25.23
2019-02-07T09:28:54.026Z,23.73
2019-02-07T09:31:35.867Z,24.33
2019-02-07T09:34:08.218Z,23.87
2019-02-07T09:36:56.061Z,24.40
2019-02-07T09:39:25.768Z,23.20
2019-02-07T09:42:10.468Z,25.20
2019-02-07T09:44:56.726Z,25.03
2019-02-07T09:47:26.444Z,24.10
2019-02-07T09:49:59.199Z,25.87
2019-02-07T09:52:37.862Z,25.40
2019-02-07T09:55:09.827Z,26.43
2019-02-07T09:57:39.569Z,25.03
2019-02-07T10:00:25.758Z,25.48
2019-02-07T10:03:12.028Z,24.95
2019-02-07T10:05:41.755Z,24.43
2019-02-07T10:08:30.058Z,25.83
2019-02-07T10:10:59.930Z,24.63
2019-02-07T10:13:30.280Z,25.88
2019-02-07T10:16:06.104Z,24.03
2019-02-07T10:18:38.742Z,25.67
2019-02-07T10:21:23.451Z,25.87
2019-02-07T10:23:53.415Z,25.50
2019-02-07T10:26:41.158Z,27.62
2019-02-07T10:29:22.575Z,26.05
2019-02-07T10:31:58.193Z,25.52
2019-02-07T10:34:44.262Z,24.80
2019-02-07T10:37:30.159Z,24.27
2019-02-07T10:40:05.761Z,25.83
2019-02-07T10:42:44.295Z,25.93
2019-02-07T10:45:16.997Z,23.83
2019-02-07T10:47:55.748Z,24.77
2019-02-07T10:50:34.548Z,24.77
2019-02-07T10:53:13.227Z,25.53
2019-02-07T10:55:43.327Z,25.93
2019-02-07T10:58:21.855Z,24.50
2019-02-07T11:01:06.715Z,24.90
2019-02-07T11:03:39.247Z,24.23
2019-02-07T11:06:25.054Z,23.63
2019-02-07T11:08:54.750Z,23.87
2019-02-07T11:11:24.462Z,24.73
2019-02-07T11:13:57.318Z,23.83
2019-02-07T11:16:33.770Z,25.00
2019-02-07T11:19:20.700Z,25.33
2019-02-07T11:21:51.341Z,24.07
2019-02-07T11:24:37.218Z,24.43
2019-02-07T11:27:12.806Z,24.63
2019-02-07T11:29:44.907Z,25.10
2019-02-07T11:32:20.504Z,27.10
2019-02-07T11:34:50.203Z,22.83
2019-02-07T11:37:22.773Z,26.07
2019-02-07T11:39:55.410Z,24.97
2019-02-07T11:42:43.043Z,25.43
2019-02-07T11:45:13.583Z,24.37
2019-02-07T11:47:43.266Z,25.73
2019-02-07T11:50:15.742Z,26.60
2019-02-07T11:52:48.174Z,25.53
2019-02-07T11:55:17.945Z,25.60
2019-02-07T11:58:05.250Z,25.50
2019-02-07T12:00:37.638Z,25.13
2019-02-07T12:03:13.060Z,25.37
2019-02-07T12:05:43.039Z,25.87
2019-02-07T12:08:30.150Z,26.40
2019-02-07T12:11:02.910Z,27.57
2019-02-07T12:13:41.831Z,25.93
2019-02-07T12:16:20.187Z,25.33
2019-02-07T12:18:50.158Z,24.73
2019-02-07T12:21:28.819Z,25.33
2019-02-07T12:24:17.026Z,26.67
2019-02-07T12:26:46.718Z,25.13
2019-02-07T12:29:16.414Z,24.87
2019-02-07T12:32:02.610Z,22.47
2019-02-07T12:34:47.159Z,24.17
2019-02-07T12:37:34.710Z,23.77
2019-02-07T12:40:11.499Z,25.50
2019-02-07T12:42:41.174Z,26.43
2019-02-07T12:45:19.891Z,25.03
2019-02-07T12:48:06.120Z,24.13
2019-02-07T12:50:52.602Z,24.77
2019-02-07T12:53:22.309Z,23.53
2019-02-07T12:56:08.107Z,25.00
2019-02-07T12:59:13.453Z,23.70
2019-02-07T13:02:00.022Z,25.30
2019-02-07T13:04:41.766Z,24.50
2019-02-07T13:07:11.498Z,25.70
2019-02-07T13:09:57.392Z,24.50
2019-02-07T13:12:29.851Z,24.60
2019-02-07T13:14:59.550Z,26.67
2019-02-07T13:17:29.348Z,27.50
2019-02-07T13:20:07.833Z,27.33
2019-02-07T13:22:53.711Z,26.70
2019-02-07T13:25:29.358Z,27.43
2019-02-07T13:28:11.069Z,26.97
2019-02-07T13:30:46.443Z,27.40
2019-02-07T13:33:18.869Z,26.40
2019-02-07T13:35:48.621Z,25.77
2019-02-07T13:38:34.543Z,27.63
2019-02-07T13:41:06.957Z,27.67
2019-02-07T13:43:53.346Z,27.87
2019-02-07T13:46:25.581Z,27.60
2019-02-07T13:49:26.924Z,28.03
2019-02-07T13:52:22.286Z,28.03
2019-02-07T13:54:55.036Z,27.13
2019-02-07T13:57:36.771Z,27.53
2019-02-07T14:00:24.167Z,28.97
2019-02-07T14:03:03.086Z,26.63
2019-02-07T14:05:44.552Z,29.10
2019-02-07T14:08:38.237Z,28.60
2019-02-07T14:11:16.947Z,28.47
2019-02-07T14:13:46.678Z,28.17
2019-02-07T14:16:17.697Z,29.10
2019-02-07T14:18:49.962Z,40.17
2019-02-07T14:21:28.642Z,40.50
2019-02-07T14:23:58.350Z,30.00
2019-02-07T14:26:28.064Z,28.03
2019-02-07T14:29:10.316Z,30.27
2019-02-07T14:31:56.324Z,28.43
2019-02-07T14:34:26.038Z,29.80
2019-02-07T14:36:55.727Z,30.53
2019-02-07T14:39:31.498Z,29.30
2019-02-07T14:42:03.849Z,29.93
2019-02-07T14:44:33.542Z,29.07
2019-02-07T14:47:01.795Z,29.93
2019-02-07T14:49:29.846Z,29.13
2019-02-07T14:51:58.097Z,31.63
2019-02-07T14:54:26.150Z,30.33
2019-02-07T14:56:54.221Z,29.17
2019-02-07T14:59:22.284Z,29.73
2019-02-07T15:01:50.340Z,29.03
2019-02-07T15:04:18.415Z,29.10
2019-02-07T15:06:46.483Z,28.73
2019-02-07T15:09:15.003Z,28.87
2019-02-07T15:11:43.222Z,28.90
2019-02-07T15:14:11.355Z,27.17
2019-02-07T15:16:39.569Z,27.60
2019-02-07T15:19:07.661Z,28.70
2019-02-07T15:21:35.720Z,28.43
2019-02-07T15:24:04.178Z,28.73
2019-02-07T15:26:32.239Z,27.07
2019-02-07T15:29:00.302Z,28.83
2019-02-07T15:31:28.413Z,27.47
2019-02-07T15:33:56.466Z,26.70
2019-02-07T15:36:24.542Z,26.97
2019-02-07T15:38:52.598Z,25.10
2019-02-07T15:41:20.936Z,27.30
2019-02-07T15:43:48.999Z,25.70
2019-02-07T15:46:17.072Z,26.20
2019-02-07T15:48:45.294Z,25.63
2019-02-07T15:51:13.881Z,25.13
2019-02-07T15:53:41.919Z,26.67
2019-02-07T15:56:09.980Z,24.10
2019-02-07T15:58:56.908Z,24.23
2019-02-07T16:01:26.894Z,24.40
2019-02-07T16:03:56.687Z,25.77
2019-02-07T16:06:24.777Z,25.00
2019-02-07T16:08:52.834Z,24.40
2019-02-07T16:11:20.910Z,24.90
2019-02-07T16:13:48.988Z,24.63
2019-02-07T16:16:17.043Z,22.80
2019-02-07T16:18:45.128Z,24.77
2019-02-07T16:21:13.646Z,23.80
2019-02-07T16:23:41.730Z,22.67
2019-02-07T16:26:10.551Z,23.07
2019-02-07T16:28:38.599Z,23.03
2019-02-07T16:31:06.913Z,24.37
2019-02-07T16:33:35.092Z,22.63
2019-02-07T16:36:03.439Z,24.10
2019-02-07T16:38:31.563Z,25.50
2019-02-07T16:40:59.697Z,22.10
2019-02-07T16:43:27.890Z,22.23
2019-02-07T16:45:55.959Z,22.07
2019-02-07T16:48:24.102Z,21.40
2019-02-07T16:50:59.970Z,22.07
2019-02-07T16:53:22.484Z,21.10
2019-02-07T16:55:50.627Z,22.73
2019-02-07T16:58:19.006Z,22.67
2019-02-07T17:00:47.049Z,22.07
2019-02-07T17:03:15.127Z,22.10
2019-02-07T17:05:43.195Z,23.60
2019-02-07T17:08:11.423Z,22.53
2019-02-07T17:10:40.062Z,21.90
2019-02-07T17:13:09.492Z,22.87
2019-02-07T17:15:37.938Z,23.03
2019-02-07T17:18:06.167Z,21.70
2019-02-07T17:20:34.362Z,21.87
2019-02-07T17:23:02.434Z,20.83
2019-02-07T17:25:30.755Z,21.73
2019-02-07T17:27:58.898Z,21.70
2019-02-07T17:30:26.953Z,21.37
2019-02-07T17:32:55.021Z,22.80
2019-02-07T17:35:23.347Z,24.20
2019-02-07T17:37:51.462Z,23.57
2019-02-07T17:40:23.046Z,25.63
2019-02-07T17:42:51.110Z,27.83
2019-02-07T17:45:20.877Z,23.53
2019-02-07T17:47:49.187Z,24.10
2019-02-07T17:50:18.703Z,24.40
2019-02-07T17:52:46.763Z,23.17
2019-02-07T17:55:15.935Z,25.17
2019-02-07T17:57:43.994Z,25.57
2019-02-07T18:00:18.188Z,25.13
2019-02-07T18:02:46.412Z,24.93
2019-02-07T18:05:14.547Z,25.27
2019-02-07T18:07:42.610Z,24.30
2019-02-07T18:10:11.364Z,23.30
2019-02-07T18:12:39.430Z,25.13
2019-02-07T18:15:08.450Z,25.47
2019-02-07T18:17:36.504Z,24.80
2019-02-07T18:20:06.179Z,27.40
2019-02-07T18:22:34.282Z,27.37
2019-02-07T18:25:02.392Z,26.63
2019-02-07T18:27:30.448Z,25.83
2019-02-07T18:29:58.498Z,26.87
2019-02-07T18:32:26.555Z,25.77
2019-02-07T18:34:54.619Z,27.97
2019-02-07T18:37:22.726Z,24.43
2019-02-07T18:39:50.803Z,25.93
2019-02-07T18:42:18.846Z,27.67
2019-02-07T18:44:46.898Z,24.80
2019-02-07T18:47:14.962Z,24.93
2019-02-07T18:49:43.015Z,23.47
2019-02-07T18:52:12.176Z,23.30
2019-02-07T18:54:40.386Z,22.97
2019-02-07T18:57:08.442Z,24.37
2019-02-07T18:59:36.510Z,22.53
2019-02-07T19:02:04.637Z,23.80
2019-02-07T19:04:32.689Z,22.50
2019-02-07T19:07:00.738Z,23.10
2019-02-07T19:09:29.076Z,22.50
2019-02-07T19:11:57.145Z,22.17
2019-02-07T19:14:25.194Z,21.57
2019-02-07T19:16:53.251Z,21.70
2019-02-07T19:19:21.315Z,21.73
2019-02-07T19:21:56.856Z,22.13
2019-02-07T19:24:19.130Z,19.50
2019-02-07T19:26:47.375Z,17.57
2019-02-07T19:29:15.497Z,17.63
2019-02-07T19:31:43.552Z,18.93
2019-02-07T19:34:11.683Z,18.17
2019-02-07T19:36:39.816Z,18.87
2019-02-07T19:39:08.558Z,18.00
2019-02-07T19:41:36.639Z,17.03
2019-02-07T19:44:05.043Z,17.47
2019-02-07T19:46:33.102Z,18.93
2019-02-07T19:49:01.170Z,18.00
2019-02-07T19:51:30.489Z,17.70
2019-02-07T19:53:58.626Z,17.97
2019-02-07T19:56:27.650Z,17.90
2019-02-07T19:58:55.746Z,18.07
2019-02-07T20:01:23.982Z,18.13
2019-02-07T20:03:52.042Z,17.00
2019-02-07T20:06:20.094Z,16.57
2019-02-07T20:08:48.190Z,17.40
2019-02-07T20:11:16.251Z,17.43
2019-02-07T20:13:44.315Z,17.00
2019-02-07T20:16:12.377Z,20.87
2019-02-07T20:18:40.719Z,19.50
2019-02-07T20:21:08.806Z,18.70
2019-02-07T20:23:39.564Z,18.80
2019-02-07T20:26:06.630Z,18.63
2019-02-07T20:28:34.742Z,18.53
2019-02-07T20:31:02.798Z,18.33
2019-02-07T20:33:30.842Z,18.60
2019-02-07T20:35:58.954Z,17.77
2019-02-07T20:38:27.170Z,18.37
2019-02-07T20:40:55.230Z,19.07
2019-02-07T20:43:23.280Z,18.17
2019-02-07T20:45:51.337Z,19.37
2019-02-07T20:48:19.402Z,19.67
2019-02-07T20:50:47.480Z,19.37
2019-02-07T20:53:16.698Z,19.33
2019-02-07T20:55:45.030Z,18.47
2019-02-07T20:58:13.078Z,17.40
2019-02-07T21:00:41.302Z,18.00
2019-02-07T21:03:09.382Z,17.13
2019-02-07T21:05:37.500Z,17.23
2019-02-07T21:08:05.630Z,18.47
2019-02-07T21:10:34.647Z,17.47
2019-02-07T21:13:02.770Z,18.10
2019-02-07T21:15:30.823Z,16.30
2019-02-07T21:17:58.950Z,17.40
2019-02-07T21:20:27.906Z,15.77
2019-02-07T21:22:56.449Z,17.90
2019-02-07T21:25:26.046Z,16.60
2019-02-07T21:27:54.729Z,16.33
2019-02-07T21:30:24.653Z,16.20
2019-02-07T21:32:53.075Z,16.67
2019-02-07T21:35:21.394Z,15.50
2019-02-07T21:37:49.450Z,16.37
2019-02-07T21:40:24.939Z,16.27
2019-02-07T21:42:54.062Z,17.40
2019-02-07T21:45:22.128Z,16.23
2019-02-07T21:47:50.552Z,15.57
2019-02-07T21:50:22.454Z,16.70
2019-02-07T21:52:50.598Z,15.33
2019-02-07T21:55:19.638Z,16.43
2019-02-07T21:57:47.686Z,17.00
2019-02-07T22:00:17.370Z,16.27
2019-02-07T22:02:45.447Z,16.40
2019-02-07T22:05:13.505Z,15.60
2019-02-07T22:07:41.578Z,16.13
2019-02-07T22:10:11.414Z,15.83
2019-02-07T22:12:39.535Z,15.33
2019-02-07T22:15:12.095Z,14.33
2019-02-07T22:17:40.175Z,16.17
2019-02-07T22:20:09.934Z,15.87
2019-02-07T22:22:38.000Z,14.57
2019-02-07T22:25:06.214Z,15.90
2019-02-07T22:27:34.898Z,14.50
2019-02-07T22:30:04.536Z,15.10
2019-02-07T22:32:32.593Z,15.07
2019-02-07T22:35:00.926Z,16.47
2019-02-07T22:37:28.986Z,15.07
2019-02-07T22:39:57.102Z,14.90
2019-02-07T22:42:25.170Z,14.20
2019-02-07T22:44:53.217Z,16.00
2019-02-07T22:47:21.275Z,15.00
2019-02-07T22:49:49.350Z,14.20
2019-02-07T22:52:20.532Z,14.93
2019-02-07T22:54:48.618Z,14.83
2019-02-07T22:57:16.662Z,15.50
2019-02-07T22:59:44.716Z,14.73
2019-02-07T23:02:12.773Z,14.37
2019-02-07T23:04:40.826Z,14.17
2019-02-07T23:07:08.926Z,15.60
2019-02-07T23:09:37.261Z,14.33
2019-02-07T23:12:05.778Z,14.20
2019-02-07T23:14:33.839Z,14.50
2019-02-07T23:17:01.890Z,13.23
2019-02-07T23:19:29.930Z,13.87
2019-02-07T23:21:58.017Z,13.50
2019-02-07T23:24:26.071Z,14.47
2019-02-07T23:26:54.129Z,14.30
2019-02-07T23:29:22.181Z,13.20
2019-02-07T23:31:50.234Z,13.67
2019-02-07T23:34:19.118Z,14.07
2019-02-07T23:36:47.294Z,13.93
2019-02-07T23:39:15.360Z,13.07
2019-02-07T23:41:43.448Z,12.90
2019-02-07T23:44:11.549Z,14.37
2019-02-07T23:46:39.691Z,13.17
2019-02-07T23:49:07.787Z,12.57
2019-02-07T23:51:36.310Z,12.53
2019-02-07T23:54:04.738Z,13.27
2019-02-07T23:56:32.801Z,14.27
2019-02-07T23:59:00.868Z,13.27
